createdAt,value
2023-02-09T00:01:05.532Z,45.90
2023-02-09T00:03:34.237Z,51.50
2023-02-09T00:06:03.862Z,50.10
2023-02-09T00:08:32.441Z,48.60
2023-02-09T00:11:00.721Z,49.50
2023-02-09T00:13:28.891Z,44.50
2023-02-09T00:15:57.912Z,45.10
2023-02-09T00:18:26.511Z,49.60
2023-02-09T00:20:58.929Z,44.80
2023-02-09T00:23:28.251Z,45.60
2023-02-09T00:25:59.904Z,47.40
2023-02-09T00:28:28.192Z,44.10
2023-02-09T00:30:56.217Z,48.60
2023-02-09T00:33:24.415Z,49.20
2023-02-09T00:35:52.590Z,45.40
2023-02-09T00:38:20.522Z,47.10
2023-02-09T00:40:49.546Z,52.10
2023-02-09T00:43:17.533Z,44.60
2023-02-09T00:45:46.645Z,47.50
2023-02-09T00:48:15.925Z,51.40
2023-02-09T00:50:44.219Z,48.50
2023-02-09T00:53:12.467Z,44.00
2023-02-09T00:55:42.380Z,47.90
2023-02-09T00:58:10.563Z,47.90
2023-02-09T01:00:38.735Z,50.20
2023-02-09T01:03:06.987Z,43.40
2023-02-09T01:05:38.350Z,47.60
2023-02-09T01:08:06.419Z,48.80
2023-02-09T01:10:34.576Z,46.60
2023-02-09T01:13:02.663Z,48.10
2023-02-09T01:15:30.735Z,44.80
2023-02-09T01:17:59.373Z,48.40
2023-02-09T01:20:27.824Z,48.50
2023-02-09T01:22:55.972Z,49.10
2023-02-09T01:25:24.352Z,47.40
2023-02-09T01:27:52.303Z,48.30
2023-02-09T01:30:20.371Z,48.00
2023-02-09T01:32:48.871Z,44.80
2023-02-09T01:35:17.450Z,47.00
2023-02-09T01:37:45.361Z,49.70
2023-02-09T01:40:15.991Z,47.30
2023-02-09T01:42:43.977Z,42.00
2023-02-09T01:45:15.889Z,47.30
2023-02-09T01:47:47.364Z,44.40
2023-02-09T01:50:15.925Z,45.90
2023-02-09T01:52:45.129Z,51.40
2023-02-09T01:55:15.354Z,48.40
2023-02-09T01:57:46.487Z,44.50
2023-02-09T02:00:16.272Z,44.80
2023-02-09T02:02:48.139Z,49.90
2023-02-09T02:05:16.644Z,50.40
2023-02-09T02:07:44.604Z,48.70
2023-02-09T02:10:13.084Z,50.70
2023-02-09T02:12:43.208Z,52.10
2023-02-09T02:15:12.100Z,49.70
2023-02-09T02:17:49.585Z,51.80
2023-02-09T02:20:28.408Z,57.60
2023-02-09T02:23:11.323Z,53.60
2023-02-09T02:26:00.544Z,56.20
2023-02-09T02:28:28.689Z,52.70
2023-02-09T02:31:19.862Z,58.00
2023-02-09T02:33:57.470Z,55.40
2023-02-09T02:36:33.866Z,59.10
2023-02-09T02:39:22.332Z,57.50
2023-02-09T02:42:22.402Z,60.20
2023-02-09T02:44:56.621Z,61.00
2023-02-09T02:47:25.858Z,58.20
2023-02-09T02:49:56.665Z,59.00
2023-02-09T02:52:24.836Z,63.50
2023-02-09T02:54:57.368Z,58.30
2023-02-09T02:59:57.241Z,64.60
2023-02-09T03:02:28.484Z,60.00
2023-02-09T03:04:58.193Z,61.00
2023-02-09T03:07:26.370Z,61.20
2023-02-09T03:09:56.494Z,62.90
2023-02-09T03:12:30.633Z,58.90
2023-02-09T03:15:18.420Z,60.20
2023-02-09T03:17:55.446Z,59.70
2023-02-09T03:20:33.483Z,65.90
2023-02-09T03:23:02.650Z,59.00
2023-02-09T03:25:33.558Z,62.30
2023-02-09T03:28:05.060Z,62.80
2023-02-09T03:30:33.951Z,61.80
2023-02-09T03:33:03.923Z,61.90
2023-02-09T03:35:36.250Z,62.30
2023-02-09T03:38:07.285Z,61.90
2023-02-09T03:40:35.407Z,63.10
2023-02-09T03:43:03.570Z,64.40
2023-02-09T03:45:31.540Z,65.40
2023-02-09T03:47:59.520Z,61.50
2023-02-09T03:50:30.043Z,61.50
2023-02-09T03:52:58.542Z,65.70
2023-02-09T03:55:26.691Z,61.10
2023-02-09T03:57:54.674Z,60.40
2023-02-09T04:00:22.711Z,61.00
2023-02-09T04:02:50.786Z,67.50
2023-02-09T04:05:19.008Z,64.20
2023-02-09T04:07:47.137Z,65.50
2023-02-09T04:10:15.126Z,60.50
2023-02-09T04:12:43.017Z,67.40
2023-02-09T04:15:11.074Z,63.70
2023-02-09T04:17:39.223Z,65.80
2023-02-09T04:20:07.713Z,69.20
2023-02-09T04:22:35.776Z,64.60
2023-02-09T04:25:03.960Z,66.90
2023-02-09T04:27:32.739Z,66.30
2023-02-09T04:30:00.681Z,69.60
2023-02-09T04:32:28.685Z,74.20
2023-02-09T04:34:56.702Z,68.80
2023-02-09T04:37:24.717Z,66.60
2023-02-09T04:39:52.683Z,66.30
2023-02-09T04:42:20.653Z,71.80
2023-02-09T04:44:48.772Z,66.40
2023-02-09T04:47:16.707Z,71.60
2023-02-09T04:49:44.763Z,72.30
2023-02-09T04:52:13.146Z,68.90
2023-02-09T04:54:41.119Z,69.50
2023-02-09T04:57:28.031Z,70.30
2023-02-09T04:59:56.230Z,67.90
2023-02-09T05:02:24.384Z,62.40
2023-02-09T05:04:52.549Z,67.70
2023-02-09T05:07:20.923Z,64.70
2023-02-09T05:09:49.197Z,67.20
2023-02-09T05:12:17.174Z,64.70
2023-02-09T05:14:45.138Z,67.30
2023-02-09T05:17:13.287Z,67.30
2023-02-09T05:19:41.383Z,65.40
2023-02-09T05:22:09.317Z,64.80
2023-02-09T05:24:37.184Z,61.80
2023-02-09T05:27:05.303Z,59.40
2023-02-09T05:29:33.261Z,59.40
2023-02-09T05:32:01.255Z,57.60
2023-02-09T05:34:29.309Z,56.60
2023-02-09T05:36:57.268Z,59.60
2023-02-09T05:39:25.213Z,62.50
2023-02-09T05:42:12.049Z,61.20
2023-02-09T05:44:40.118Z,61.90
2023-02-09T05:47:08.189Z,60.40
2023-02-09T05:49:36.258Z,62.80
2023-02-09T05:52:04.740Z,64.20
2023-02-09T05:54:32.825Z,63.70
2023-02-09T05:57:01.092Z,60.80
2023-02-09T05:59:29.158Z,63.90
2023-02-09T06:01:57.660Z,65.10
2023-02-09T06:04:26.254Z,60.50
2023-02-09T06:06:54.800Z,62.30
2023-02-09T06:09:22.873Z,59.60
2023-02-09T06:11:50.952Z,62.80
2023-02-09T06:14:19.531Z,64.70
2023-02-09T06:16:47.449Z,67.10
2023-02-09T06:19:17.135Z,64.40
2023-02-09T06:21:45.584Z,67.90
2023-02-09T06:24:13.964Z,70.80
2023-02-09T06:26:42.357Z,68.00
2023-02-09T06:29:10.386Z,71.50
2023-02-09T06:31:38.843Z,69.10
2023-02-09T06:34:06.801Z,68.70
2023-02-09T06:36:34.933Z,68.60
2023-02-09T06:39:06.538Z,65.50
2023-02-09T06:41:35.279Z,69.80
2023-02-09T06:44:03.999Z,66.30
2023-02-09T06:46:32.162Z,66.60
2023-02-09T06:49:00.234Z,67.30
2023-02-09T06:51:28.283Z,67.90
2023-02-09T06:53:56.265Z,73.50
2023-02-09T06:56:24.502Z,70.60
2023-02-09T06:58:53.207Z,68.00
2023-02-09T07:01:21.426Z,72.30
2023-02-09T07:03:49.654Z,77.40
2023-02-09T07:06:18.855Z,73.00
2023-02-09T07:08:47.072Z,67.20
2023-02-09T07:11:16.153Z,68.90
2023-02-09T07:13:44.616Z,71.40
2023-02-09T07:16:13.472Z,66.30
2023-02-09T07:18:41.770Z,67.90
2023-02-09T07:21:11.480Z,65.50
2023-02-09T07:23:39.850Z,62.30
2023-02-09T07:57:05.286Z,60.00
2023-02-09T07:59:33.609Z,59.00
2023-02-09T08:02:01.728Z,61.40
2023-02-09T08:04:29.760Z,59.30
2023-02-09T08:06:57.881Z,54.00
2023-02-09T08:09:26.152Z,58.50
2023-02-09T08:11:58.860Z,55.20
2023-02-09T08:14:39.697Z,51.10
2023-02-09T08:17:20.641Z,56.40
2023-02-09T08:20:12.463Z,56.00
2023-02-09T08:22:45.304Z,52.50
2023-02-09T08:25:16.310Z,56.10
2023-02-09T08:27:44.919Z,54.30
2023-02-09T08:30:15.379Z,58.10
2023-02-09T08:32:43.900Z,56.80
2023-02-09T08:35:15.321Z,58.10
2023-02-09T08:37:43.464Z,54.00
2023-02-09T08:40:12.589Z,51.10
2023-02-09T08:42:42.486Z,54.40
2023-02-09T08:45:12.635Z,51.80
2023-02-09T08:47:40.800Z,56.00
2023-02-09T08:50:11.218Z,56.00
2023-02-09T08:52:39.411Z,51.60
2023-02-09T08:55:07.670Z,57.90
2023-02-09T08:57:43.853Z,55.20
2023-02-09T09:00:14.090Z,54.30
2023-02-09T09:02:42.173Z,50.70
2023-02-09T09:05:10.584Z,66.90
2023-02-09T09:07:38.820Z,54.90
2023-02-09T09:10:08.997Z,50.30
2023-02-09T09:12:37.873Z,53.50
2023-02-09T09:15:06.628Z,54.60
2023-02-09T09:17:34.724Z,50.00
2023-02-09T09:20:03.748Z,52.80
2023-02-09T09:22:31.854Z,52.30
2023-02-09T09:24:59.963Z,56.10
2023-02-09T09:27:28.514Z,53.50
2023-02-09T09:29:56.577Z,47.60
2023-02-09T09:32:25.360Z,50.80
2023-02-09T09:34:59.020Z,53.20
2023-02-09T09:37:27.617Z,53.70
2023-02-09T09:39:55.633Z,54.40
2023-02-09T09:42:30.758Z,52.80
2023-02-09T09:44:59.215Z,50.90
2023-02-09T09:47:36.747Z,55.00
2023-02-09T09:50:21.607Z,57.40
2023-02-09T09:53:01.085Z,60.60
2023-02-09T09:55:32.183Z,53.90
2023-02-09T09:58:05.521Z,56.60
2023-02-09T10:00:40.075Z,54.40
2023-02-09T10:03:17.301Z,55.60
2023-02-09T10:05:49.455Z,59.50
2023-02-09T10:08:35.832Z,54.90
2023-02-09T10:11:11.573Z,55.20
2023-02-09T10:13:48.075Z,53.60
2023-02-09T10:19:32.911Z,53.40
2023-02-09T10:22:01.172Z,51.40
2023-02-09T10:24:32.187Z,59.10
2023-02-09T10:27:13.841Z,58.80
2023-02-09T10:29:42.193Z,56.80
2023-02-09T10:32:16.188Z,58.00
2023-02-09T10:34:57.110Z,57.10
2023-02-09T10:37:36.107Z,52.70
2023-02-09T10:40:14.323Z,58.10
2023-02-09T10:42:56.976Z,59.20
2023-02-09T10:45:33.215Z,58.30
2023-02-09T10:48:17.021Z,52.40
2023-02-09T10:51:00.816Z,53.50
2023-02-09T10:53:33.658Z,58.50
2023-02-09T10:56:21.550Z,58.10
2023-02-09T10:58:53.409Z,54.70
2023-02-09T11:01:32.078Z,55.10
2023-02-09T11:04:18.304Z,53.70
2023-02-09T11:06:57.716Z,47.90
2023-02-09T11:09:35.204Z,56.70
2023-02-09T11:12:03.507Z,54.90
2023-02-09T11:14:31.983Z,53.20
2023-02-09T11:17:15.944Z,53.30
2023-02-09T11:20:17.329Z,55.80
2023-02-09T11:23:13.402Z,51.10
2023-02-09T11:25:50.516Z,53.70
2023-02-09T11:28:46.712Z,57.60
2023-02-09T11:31:36.848Z,55.60
2023-02-09T11:34:25.399Z,56.30
2023-02-09T11:37:16.448Z,53.00
2023-02-09T11:39:57.852Z,56.20
2023-02-09T11:42:44.611Z,58.90
2023-02-09T11:45:34.315Z,53.70
2023-02-09T11:48:24.669Z,52.70
2023-02-09T11:51:22.519Z,50.70
2023-02-09T11:54:18.446Z,53.30
2023-02-09T11:56:50.975Z,47.30
2023-02-09T11:59:34.386Z,50.30
2023-02-09T12:02:14.355Z,51.40
2023-02-09T12:04:53.567Z,47.20
2023-02-09T12:07:28.268Z,49.00
2023-02-09T12:10:34.205Z,50.80
2023-02-09T12:13:21.068Z,46.20
2023-02-09T12:15:53.327Z,47.40
2023-02-09T12:18:24.292Z,47.30
2023-02-09T12:20:58.248Z,49.40
2023-02-09T12:23:35.886Z,42.70
2023-02-09T12:26:16.291Z,51.80
2023-02-09T12:29:03.655Z,46.80
2023-02-09T12:32:03.773Z,47.90
2023-02-09T12:34:53.141Z,47.50
2023-02-09T12:37:30.500Z,47.40
2023-02-09T12:40:07.791Z,50.70
2023-02-09T12:43:03.686Z,55.90
2023-02-09T12:45:40.471Z,45.60
2023-02-09T12:48:08.594Z,53.80
2023-02-09T12:50:42.841Z,53.80
2023-02-09T12:53:26.938Z,55.90
2023-02-09T12:56:07.273Z,47.80
2023-02-09T12:58:45.776Z,50.20
2023-02-09T13:01:15.309Z,52.20
2023-02-09T13:04:01.227Z,51.30
2023-02-09T13:06:40.669Z,50.50
2023-02-09T13:09:15.600Z,51.50
2023-02-09T13:11:49.913Z,53.30
2023-02-09T13:14:22.467Z,50.50
2023-02-09T13:17:08.937Z,49.90
2023-02-09T13:19:57.787Z,48.20
2023-02-09T13:22:44.345Z,47.10
2023-02-09T13:25:22.158Z,50.80
2023-02-09T13:27:51.028Z,50.40
2023-02-09T13:30:29.956Z,49.30
2023-02-09T13:33:20.556Z,56.30
2023-02-09T13:36:06.915Z,53.80
2023-02-09T13:38:40.670Z,49.80
2023-02-09T13:41:32.085Z,51.00
2023-02-09T13:44:00.172Z,47.70
2023-02-09T13:46:34.188Z,48.60
2023-02-09T13:49:15.604Z,46.50
2023-02-09T13:51:43.771Z,52.00
2023-02-09T13:54:20.318Z,47.20
2023-02-09T13:56:48.521Z,52.60
2023-02-09T13:59:17.701Z,51.10
2023-02-09T14:01:46.552Z,48.60
2023-02-09T14:04:20.074Z,56.90
2023-02-09T14:07:09.719Z,52.10
2023-02-09T14:09:48.948Z,53.90
2023-02-09T14:12:45.538Z,52.40
2023-02-09T14:15:33.858Z,56.80
2023-02-09T14:18:02.018Z,48.30
2023-02-09T14:20:30.480Z,47.70
2023-02-09T14:23:01.528Z,52.60
2023-02-09T14:25:31.499Z,54.20
2023-02-09T14:28:00.106Z,52.40
2023-02-09T14:30:32.929Z,61.00
2023-02-09T14:33:06.242Z,53.70
2023-02-09T14:35:41.162Z,48.70
2023-02-09T14:38:37.942Z,51.70
2023-02-09T14:41:29.364Z,55.90
2023-02-09T14:44:06.697Z,52.80
2023-02-09T14:47:26.788Z,51.30
2023-02-09T14:49:57.205Z,55.60
2023-02-09T14:52:31.722Z,52.50
2023-02-09T14:55:05.044Z,50.00
2023-02-09T14:57:36.403Z,57.30
2023-02-09T15:00:23.070Z,54.10
2023-02-09T15:02:53.027Z,55.20
2023-02-09T15:05:23.010Z,57.00
2023-02-09T15:08:05.829Z,60.60
2023-02-09T15:10:45.586Z,62.10
2023-02-09T15:13:15.405Z,63.40
2023-02-09T15:15:44.318Z,72.20
2023-02-09T15:18:20.086Z,69.00
2023-02-09T15:20:48.839Z,59.00
2023-02-09T15:23:17.359Z,59.30
2023-02-09T15:25:45.779Z,64.60
2023-02-09T15:28:28.766Z,64.50
2023-02-09T15:30:58.678Z,58.40
2023-02-09T15:33:28.589Z,63.00
2023-02-09T15:35:58.986Z,58.60
2023-02-09T15:38:28.070Z,64.90
2023-02-09T15:41:14.615Z,59.60
2023-02-09T15:44:01.486Z,67.30
2023-02-09T15:46:48.355Z,63.70
2023-02-09T15:49:16.599Z,67.60
2023-02-09T15:51:44.780Z,63.50
2023-02-09T15:54:18.772Z,65.00
2023-02-09T15:56:46.964Z,63.00
2023-02-09T15:59:23.667Z,61.30
2023-02-09T16:01:52.042Z,67.00
2023-02-09T16:04:20.185Z,62.40
2023-02-09T16:06:53.595Z,63.40
2023-02-09T16:09:26.702Z,57.70
2023-02-09T16:11:55.532Z,56.40
2023-02-09T16:14:26.044Z,56.70
2023-02-09T16:16:54.187Z,53.50
2023-02-09T16:19:22.362Z,58.10
2023-02-09T16:21:56.395Z,61.20
2023-02-09T16:24:39.791Z,52.70
2023-02-09T16:27:15.374Z,57.90
2023-02-09T16:29:43.685Z,53.80
2023-02-09T16:32:20.104Z,53.80
2023-02-09T16:34:48.712Z,52.10
2023-02-09T16:37:20.221Z,53.90
2023-02-09T16:39:48.285Z,53.60
2023-02-09T16:42:16.828Z,52.40
2023-02-09T16:44:44.869Z,54.10
2023-02-09T16:47:20.029Z,59.30
2023-02-09T16:50:34.550Z,48.70
2023-02-09T16:53:13.611Z,51.30
2023-02-09T16:55:42.201Z,50.20
2023-02-09T16:58:14.776Z,48.10
2023-02-09T17:00:44.836Z,47.60
2023-02-09T17:03:19.979Z,51.10
2023-02-09T17:05:51.484Z,54.00
2023-02-09T17:08:25.783Z,50.40
2023-02-09T17:10:56.204Z,56.00
2023-02-09T17:13:24.661Z,50.50
2023-02-09T17:15:56.754Z,54.50
2023-02-09T17:18:32.513Z,51.70
2023-02-09T17:21:06.576Z,58.00
2023-02-09T17:23:37.353Z,56.10
2023-02-09T17:26:05.890Z,49.60
2023-02-09T17:28:34.244Z,54.00
2023-02-09T17:31:09.650Z,59.40
2023-02-09T17:33:39.085Z,50.90
2023-02-09T17:36:25.588Z,49.50
2023-02-09T17:38:57.092Z,49.80
2023-02-09T17:41:37.335Z,52.90
2023-02-09T17:44:24.064Z,49.60
2023-02-09T17:47:00.097Z,49.40
2023-02-09T17:49:28.260Z,42.30
2023-02-09T17:51:56.376Z,53.80
2023-02-09T17:54:25.086Z,47.60
2023-02-09T17:56:53.120Z,45.90
2023-02-09T17:59:21.438Z,43.40
2023-02-09T18:01:55.181Z,45.50
2023-02-09T18:04:26.947Z,45.00
2023-02-09T18:06:57.510Z,48.20
2023-02-09T18:09:26.089Z,49.00
2023-02-09T18:12:07.867Z,39.70
2023-02-09T18:14:36.798Z,43.20
2023-02-09T18:17:04.967Z,43.70
2023-02-09T18:19:33.206Z,43.40
2023-02-09T18:22:02.104Z,43.50
2023-02-09T18:24:33.127Z,41.20
2023-02-09T18:27:01.181Z,36.90
2023-02-09T18:29:30.176Z,39.60
2023-02-09T18:32:00.191Z,39.60
2023-02-09T18:34:29.250Z,37.70
2023-02-09T18:36:57.383Z,42.70
2023-02-09T18:39:25.433Z,39.00
2023-02-09T18:41:56.432Z,34.70
2023-02-09T18:44:29.304Z,38.40
2023-02-09T18:47:00.613Z,38.20
2023-02-09T18:49:29.746Z,34.80
2023-02-09T18:51:59.375Z,36.50
2023-02-09T18:54:29.065Z,34.40
2023-02-09T18:56:57.746Z,33.00
2023-02-09T18:59:30.971Z,30.40
2023-02-09T19:02:00.970Z,32.10
2023-02-09T19:04:29.128Z,34.40
2023-02-09T19:06:57.318Z,34.30
2023-02-09T19:09:25.444Z,31.20
2023-02-09T19:11:53.604Z,31.30
2023-02-09T19:14:37.143Z,30.10
2023-02-09T19:17:07.088Z,36.50
2023-02-09T19:19:35.289Z,27.60
2023-02-09T19:22:03.451Z,24.60
2023-02-09T19:24:31.795Z,30.60
2023-02-09T19:26:59.871Z,26.30
2023-02-09T19:29:29.110Z,32.10
2023-02-09T19:31:57.349Z,25.90
2023-02-09T19:34:30.411Z,36.70
2023-02-09T19:36:58.918Z,28.40
2023-02-09T19:39:27.091Z,29.30
2023-02-09T19:41:55.308Z,25.10
2023-02-09T19:44:23.594Z,25.00
2023-02-09T19:46:51.978Z,28.10
2023-02-09T19:49:20.602Z,27.40
2023-02-09T19:51:49.414Z,27.60
2023-02-09T19:54:17.505Z,26.90
2023-02-09T19:56:45.770Z,25.80
2023-02-09T19:59:14.131Z,25.70
2023-02-09T20:01:43.536Z,24.70
2023-02-09T20:04:11.812Z,27.80
2023-02-09T20:06:39.975Z,21.90
2023-02-09T20:09:08.656Z,25.90
2023-02-09T20:11:36.778Z,26.50
2023-02-09T20:14:05.701Z,25.40
2023-02-09T20:16:33.856Z,24.90
2023-02-09T20:19:02.424Z,26.10
2023-02-09T20:21:30.652Z,23.80
2023-02-09T20:23:58.703Z,29.60
2023-02-09T20:26:29.881Z,23.70
2023-02-09T20:28:59.126Z,25.60
2023-02-09T20:31:30.038Z,23.10
2023-02-09T20:33:58.566Z,22.30
2023-02-09T20:36:26.680Z,26.00
2023-02-09T20:38:54.860Z,22.20
2023-02-09T20:41:22.920Z,22.40
2023-02-09T20:44:09.452Z,23.00
2023-02-09T20:46:56.094Z,23.40
2023-02-09T20:49:31.196Z,21.00
2023-02-09T20:51:59.338Z,24.40
2023-02-09T20:54:27.708Z,20.70
2023-02-09T20:56:55.747Z,22.80
2023-02-09T20:59:26.762Z,21.40
2023-02-09T21:01:55.050Z,25.20
2023-02-09T21:04:26.591Z,21.60
2023-02-09T21:06:54.703Z,20.30
2023-02-09T21:09:26.542Z,24.50
2023-02-09T21:11:56.214Z,21.40
2023-02-09T21:14:39.988Z,21.30
2023-02-09T21:17:09.543Z,22.00
2023-02-09T21:19:38.037Z,22.40
2023-02-09T21:22:06.807Z,25.50
2023-02-09T21:24:36.820Z,24.60
2023-02-09T21:27:06.667Z,19.40
2023-02-09T21:29:35.584Z,23.30
2023-02-09T21:32:05.580Z,20.20
2023-02-09T21:34:33.690Z,24.90
2023-02-09T21:37:03.766Z,21.90
2023-02-09T21:39:31.801Z,23.30
2023-02-09T21:42:18.442Z,24.10
2023-02-09T21:44:46.741Z,25.50
2023-02-09T21:47:14.837Z,24.50
2023-02-09T21:49:43.153Z,20.90
2023-02-09T21:52:11.487Z,26.00
2023-02-09T21:54:39.896Z,22.50
2023-02-09T21:57:07.939Z,24.60
2023-02-09T21:59:35.977Z,23.60
2023-02-09T22:02:04.284Z,23.20
2023-02-09T22:04:32.474Z,23.10
2023-02-09T22:07:00.689Z,20.70
2023-02-09T22:09:29.006Z,22.10
2023-02-09T22:11:57.107Z,20.90
2023-02-09T22:14:25.156Z,26.80
2023-02-09T22:16:53.293Z,22.90
2023-02-09T22:19:21.724Z,22.60
2023-02-09T22:21:51.129Z,24.60
2023-02-09T22:24:19.418Z,26.40
2023-02-09T22:26:47.789Z,21.10
2023-02-09T22:29:16.878Z,26.10
2023-02-09T22:31:45.549Z,22.00
2023-02-09T22:34:13.711Z,30.90
2023-02-09T22:36:41.728Z,26.30
2023-02-09T22:39:10.019Z,23.40
2023-02-09T22:41:38.336Z,25.20
2023-02-09T22:44:10.101Z,26.90
2023-02-09T22:46:40.113Z,25.80
2023-02-09T22:49:12.674Z,24.90
2023-02-09T22:51:40.900Z,26.60
2023-02-09T22:54:09.564Z,24.70
2023-02-09T22:56:37.613Z,23.40
2023-02-09T22:59:06.402Z,26.20
2023-02-09T23:01:34.830Z,23.60
2023-02-09T23:04:02.947Z,22.80
2023-02-09T23:06:31.073Z,27.10
2023-02-09T23:09:02.625Z,23.40
2023-02-09T23:11:31.866Z,22.30
2023-02-09T23:14:08.984Z,25.70
2023-02-09T23:16:40.203Z,28.30
2023-02-09T23:19:12.970Z,25.20
2023-02-09T23:21:43.694Z,28.40
2023-02-09T23:24:13.035Z,27.70
2023-02-09T23:26:41.176Z,29.20
2023-02-09T23:29:12.632Z,29.90
2023-02-09T23:31:41.239Z,27.20
2023-02-09T23:34:19.835Z,30.50
2023-02-09T23:36:48.415Z,27.60
2023-02-09T23:39:19.178Z,31.90
2023-02-09T23:41:47.331Z,28.40
2023-02-09T23:44:15.591Z,26.80
2023-02-09T23:46:44.837Z,28.60
2023-02-09T23:49:13.060Z,28.70
2023-02-09T23:51:41.198Z,24.00
2023-02-09T23:54:10.467Z,27.70
2023-02-09T23:56:39.926Z,29.60
2023-02-09T23:59:12.930Z,28.70
